首页
METAR-TAF:

METAR-TAF

机场 :

馬丁尼克-亞米-凱薩國際機場

法兰西堡, 馬提尼克

纬度: 14-36N, 经度: 061-00W, 海拔: 5米

当前天气观测

该预报发布于25分钟前的06:30 UTC
风速2节,风向多变
温度 26°C
湿度 84%
气压 1014 hPa
能见度10公里或以上
少量云层高于2100英尺
散云层高于4100英尺
多云层高于5200英尺

METAR: TFFF 190630Z AUTO VRB02KT 9999 FEW021 SCT041 BKN052 26/23 Q1014 TEMPO 10015G25KT 2500 SHRA SCT015CB BKN020

时间: 02:55 (06:55 UTC)

预报

该预报发布于1小时和55分钟前的05:00 UTC
预报有效从19日的 06点(UTC)到 20日的 06点(UTC)
风速7节,风向
能见度10公里或以上
散云层高于3000英尺
短暂存在
从 19日的 06点(UTC)到 19日的 13点(UTC)
能見度: 4000
散云层高于1800英尺, 塔状积云.
散云层高于2000英尺
阵雨
几率 30% :
短暂存在
从 19日的 06点(UTC)到 19日的 10点(UTC)
风速15节,风向,有时为25节阵风
能見度: 2500
散云层高于1500英尺, 积雨云.
多云层高于2000英尺
阵雨
短暂存在
从 20日的 04点(UTC)到 20日的 06点(UTC)
能見度: 4000
散云层高于1800英尺, 塔状积云.
阵雨

TAF: TFFF 190500Z 1906/2006 10007KT 9999 SCT030 TEMPO 1906/1913 4000 SHRA SCT018TCU SCT020 PROB30 TEMPO 1906/1910 10015G25KT 2500 SHRA SCT015CB BKN020 TEMPO 2004/2006 4000 SHRA SCT018TCU

超过4000个机场的气象观测和天气预报(METAR&TAF报告)。

可查询的气象台以黄色和红色小点在地图上表示。

将鼠标移到小点上方,可查看气象台名称。

然后点击查看天气观测和预报。

如需切换地图:点击带黑十字的绿色按钮放大地图;点击带横线的绿色按钮缩小地图;或者点击绿色箭头查看邻近地区的地图。


METAR-TAF: